createdAt,value
2023-05-18T00:00:11.538Z,5.14
2023-05-18T00:01:11.537Z,6.70
2023-05-18T00:02:11.558Z,7.80
2023-05-18T00:03:11.625Z,10.56
2023-05-18T00:04:11.674Z,13.99
2023-05-18T00:05:11.687Z,13.79
2023-05-18T00:06:11.667Z,12.71
2023-05-18T00:07:11.689Z,10.70
2023-05-18T00:08:11.742Z,7.10
2023-05-18T00:09:11.717Z,7.70
2023-05-18T00:10:11.847Z,9.21
2023-05-18T00:11:11.736Z,8.63
2023-05-18T00:12:11.753Z,10.88
2023-05-18T00:13:11.762Z,13.55
2023-05-18T00:14:11.824Z,12.18
2023-05-18T00:15:11.839Z,9.91
2023-05-18T00:16:11.888Z,10.13
2023-05-18T00:17:11.885Z,10.43
2023-05-18T00:18:11.890Z,9.50
2023-05-18T00:19:11.884Z,7.62
2023-05-18T00:20:11.901Z,7.31
2023-05-18T00:21:11.896Z,6.38
2023-05-18T00:22:11.898Z,6.00
2023-05-18T00:23:11.897Z,7.14
2023-05-18T00:24:11.958Z,6.49
2023-05-18T00:25:12.003Z,5.38
2023-05-18T00:26:12.010Z,5.26
2023-05-18T00:27:12.012Z,5.93
2023-05-18T00:28:12.076Z,6.93
2023-05-18T00:29:12.061Z,6.98
2023-05-18T00:30:12.125Z,7.00
2023-05-18T00:31:12.155Z,6.54
2023-05-18T00:32:12.100Z,6.81
2023-05-18T00:33:12.168Z,8.23
2023-05-18T00:34:12.161Z,7.57
2023-05-18T00:35:12.189Z,7.48
2023-05-18T00:36:12.178Z,8.63
2023-05-18T00:37:12.195Z,8.59
2023-05-18T00:38:12.205Z,5.45
2023-05-18T00:39:12.193Z,4.90
2023-05-18T00:40:12.312Z,4.20
2023-05-18T00:41:12.327Z,4.39
2023-05-18T00:42:12.383Z,5.26
2023-05-18T00:43:12.394Z,3.66
2023-05-18T00:44:12.377Z,2.94
2023-05-18T00:45:12.466Z,2.84
2023-05-18T00:46:12.451Z,2.58
2023-05-18T00:47:12.459Z,2.48
2023-05-18T00:48:12.509Z,2.62
2023-05-18T00:49:12.563Z,2.69
2023-05-18T00:50:12.637Z,2.69
2023-05-18T00:51:12.599Z,2.58
2023-05-18T00:52:12.644Z,3.20
2023-05-18T00:53:12.639Z,2.77
2023-05-18T00:54:12.714Z,2.98
2023-05-18T00:55:12.732Z,3.10
2023-05-18T00:56:12.778Z,4.33
2023-05-18T00:57:12.780Z,3.53
2023-05-18T00:58:12.856Z,3.26
2023-05-18T00:59:12.883Z,3.34
2023-05-18T01:00:12.970Z,3.36
2023-05-18T01:01:13.002Z,3.40
2023-05-18T01:02:13.063Z,3.24
2023-05-18T01:03:13.324Z,3.89
2023-05-18T01:04:13.105Z,4.26
2023-05-18T01:05:13.188Z,4.09
2023-05-18T01:06:13.149Z,3.93
2023-05-18T01:07:13.159Z,3.73
2023-05-18T01:08:13.164Z,3.88
2023-05-18T01:09:13.230Z,3.56
2023-05-18T01:10:13.237Z,3.40
2023-05-18T01:11:13.319Z,3.76
2023-05-18T01:12:13.255Z,4.25
2023-05-18T01:13:13.253Z,4.34
2023-05-18T01:14:13.263Z,4.97
2023-05-18T01:15:13.334Z,4.33
2023-05-18T01:16:14.170Z,3.88
2023-05-18T01:17:13.460Z,3.77
2023-05-18T01:18:13.356Z,3.46
2023-05-18T01:19:13.428Z,3.25
2023-05-18T01:20:13.460Z,3.81
2023-05-18T01:21:13.483Z,2.83
2023-05-18T01:22:13.540Z,2.33
2023-05-18T01:23:13.521Z,2.38
2023-05-18T01:24:13.512Z,2.71
2023-05-18T01:25:13.567Z,3.18
2023-05-18T01:26:13.593Z,3.96
2023-05-18T01:27:13.679Z,3.41
2023-05-18T01:28:13.717Z,2.92
2023-05-18T01:29:13.738Z,3.00
2023-05-18T01:30:13.792Z,3.62
2023-05-18T01:31:13.833Z,4.09
2023-05-18T01:32:13.792Z,4.06
2023-05-18T01:33:13.841Z,4.63
2023-05-18T01:34:13.859Z,4.74
2023-05-18T01:35:13.922Z,5.15
2023-05-18T01:36:13.915Z,4.69
2023-05-18T01:37:13.941Z,4.72
2023-05-18T01:38:13.955Z,4.83
2023-05-18T01:39:14.057Z,5.47
2023-05-18T01:40:13.991Z,5.43
2023-05-18T01:41:14.098Z,6.33
2023-05-18T01:42:14.092Z,6.42
2023-05-18T01:43:14.072Z,6.83
2023-05-18T01:44:14.132Z,5.80
2023-05-18T01:45:14.188Z,5.33
2023-05-18T01:46:14.225Z,5.33
2023-05-18T01:47:14.208Z,4.69
2023-05-18T01:48:14.250Z,5.09
2023-05-18T01:49:14.220Z,5.54
2023-05-18T01:50:14.280Z,5.55
2023-05-18T01:51:14.293Z,5.49
2023-05-18T01:52:14.353Z,5.32
2023-05-18T01:53:14.408Z,5.36
2023-05-18T01:54:14.407Z,5.92
2023-05-18T01:55:14.459Z,6.76
2023-05-18T01:56:14.483Z,6.91
2023-05-18T01:57:14.482Z,7.62
2023-05-18T01:58:14.506Z,8.33
2023-05-18T01:59:14.534Z,8.19
2023-05-18T02:00:14.545Z,8.24
2023-05-18T02:01:14.575Z,8.83
2023-05-18T02:02:14.787Z,7.90
2023-05-18T02:03:14.769Z,7.64
2023-05-18T02:04:14.701Z,8.36
2023-05-18T02:05:14.737Z,6.66
2023-05-18T02:06:14.769Z,6.83
2023-05-18T02:07:14.755Z,6.64
2023-05-18T02:08:14.794Z,7.29
2023-05-18T02:09:14.850Z,7.37
2023-05-18T02:10:15.556Z,7.10
2023-05-18T02:11:14.861Z,7.09
2023-05-18T02:12:14.978Z,6.66
2023-05-18T02:13:14.940Z,6.03
2023-05-18T02:14:14.925Z,6.25
2023-05-18T02:15:14.935Z,6.44
2023-05-18T02:16:14.970Z,5.74
2023-05-18T02:17:16.042Z,5.75
2023-05-18T02:18:15.011Z,6.34
2023-05-18T02:19:15.210Z,6.23
2023-05-18T02:20:15.117Z,5.65
2023-05-18T02:21:15.128Z,4.59
2023-05-18T02:22:15.180Z,4.58
2023-05-18T02:23:15.204Z,5.04
2023-05-18T02:24:15.258Z,7.00
2023-05-18T02:25:15.322Z,9.57
2023-05-18T02:26:15.265Z,12.67
2023-05-18T02:27:15.315Z,12.95
2023-05-18T02:28:15.389Z,14.25
2023-05-18T02:29:15.399Z,14.07
2023-05-18T02:30:16.141Z,16.19
2023-05-18T02:31:15.481Z,11.17
2023-05-18T02:32:15.588Z,10.67
2023-05-18T02:33:15.530Z,14.01
2023-05-18T02:34:15.591Z,14.38
2023-05-18T02:35:15.600Z,16.28
2023-05-18T02:36:15.590Z,16.77
2023-05-18T02:37:15.655Z,16.61
2023-05-18T02:38:15.659Z,17.53
2023-05-18T02:39:15.670Z,14.31
2023-05-18T02:40:15.697Z,13.32
2023-05-18T02:41:15.689Z,13.12
2023-05-18T02:42:15.720Z,10.11
2023-05-18T02:43:15.700Z,10.38
2023-05-18T02:44:15.720Z,10.79
2023-05-18T02:45:15.756Z,14.29
2023-05-18T02:46:15.794Z,13.44
2023-05-18T02:47:15.813Z,15.03
2023-05-18T02:48:15.836Z,16.35
2023-05-18T02:49:15.843Z,17.16
2023-05-18T02:50:15.902Z,18.34
2023-05-18T02:51:15.904Z,17.05
2023-05-18T02:52:15.958Z,15.01
2023-05-18T02:53:16.007Z,13.33
2023-05-18T02:54:16.017Z,14.22
2023-05-18T02:55:16.049Z,13.63
2023-05-18T02:56:16.088Z,9.60
2023-05-18T02:57:16.144Z,8.30
2023-05-18T02:58:16.140Z,8.64
2023-05-18T02:59:16.181Z,10.39
2023-05-18T03:00:16.220Z,9.24
2023-05-18T03:01:16.233Z,8.57
2023-05-18T03:02:16.327Z,9.25
2023-05-18T03:03:16.454Z,11.31
2023-05-18T03:04:16.321Z,9.73
2023-05-18T03:05:16.363Z,7.04
2023-05-18T03:06:16.357Z,5.56
2023-05-18T03:07:16.374Z,4.30
2023-05-18T03:08:16.437Z,5.84
2023-05-18T03:09:16.429Z,7.11
2023-05-18T03:10:16.493Z,5.34
2023-05-18T03:11:16.492Z,4.30
2023-05-18T03:12:16.536Z,3.28
2023-05-18T03:13:16.536Z,3.16
2023-05-18T03:14:16.601Z,2.72
2023-05-18T03:15:16.640Z,2.80
2023-05-18T03:16:16.728Z,2.89
2023-05-18T03:17:16.684Z,3.35
2023-05-18T03:18:16.668Z,2.86
2023-05-18T03:19:16.733Z,2.64
2023-05-18T03:20:16.754Z,2.70
2023-05-18T03:21:16.738Z,3.06
2023-05-18T03:22:16.813Z,3.10
2023-05-18T03:23:16.783Z,2.66
2023-05-18T03:24:16.806Z,2.73
2023-05-18T03:25:16.865Z,3.31
2023-05-18T03:26:16.877Z,2.88
2023-05-18T03:27:16.857Z,2.84
2023-05-18T03:28:16.929Z,4.41
2023-05-18T03:29:16.952Z,8.26
2023-05-18T03:30:17.016Z,10.71
2023-05-18T03:31:17.111Z,11.10
2023-05-18T03:32:17.083Z,10.85
2023-05-18T03:33:17.314Z,9.69
2023-05-18T03:34:17.166Z,8.15
2023-05-18T03:35:17.188Z,8.00
2023-05-18T03:36:17.210Z,9.20
2023-05-18T03:37:17.241Z,10.36
2023-05-18T03:38:17.272Z,11.63
2023-05-18T03:39:17.279Z,9.83
2023-05-18T03:40:17.304Z,9.30
2023-05-18T03:41:17.355Z,8.99
2023-05-18T03:42:17.359Z,9.78
2023-05-18T03:43:17.334Z,10.29
2023-05-18T03:44:17.356Z,9.70
2023-05-18T03:45:17.368Z,9.69
2023-05-18T03:46:17.443Z,9.29
2023-05-18T03:47:18.169Z,11.21
2023-05-18T03:48:17.441Z,7.76
2023-05-18T03:49:17.454Z,6.14
2023-05-18T03:50:17.483Z,6.44
2023-05-18T03:51:17.457Z,7.77
2023-05-18T03:52:17.480Z,8.36
2023-05-18T03:53:17.530Z,6.61
2023-05-18T03:54:17.526Z,6.44
2023-05-18T03:55:17.513Z,6.89
2023-05-18T03:56:17.573Z,7.40
2023-05-18T03:57:17.552Z,5.28
2023-05-18T03:58:17.581Z,4.22
2023-05-18T03:59:17.612Z,4.66
2023-05-18T04:00:17.666Z,5.55
2023-05-18T04:01:17.680Z,7.66
2023-05-18T04:02:17.717Z,6.97
2023-05-18T04:03:17.835Z,3.72
2023-05-18T04:04:18.062Z,2.75
2023-05-18T04:05:17.851Z,2.86
2023-05-18T04:06:17.844Z,2.35
2023-05-18T04:07:17.870Z,2.34
2023-05-18T04:08:17.918Z,2.08
2023-05-18T04:09:17.939Z,1.97
2023-05-18T04:10:17.914Z,2.15
2023-05-18T04:11:17.936Z,2.13
2023-05-18T04:12:17.987Z,2.18
2023-05-18T04:13:17.991Z,2.16
2023-05-18T04:14:18.024Z,1.95
2023-05-18T04:15:18.064Z,1.87
2023-05-18T04:16:18.123Z,1.87
2023-05-18T04:17:18.105Z,1.64
2023-05-18T04:18:18.151Z,1.53
2023-05-18T04:19:18.223Z,1.62
2023-05-18T04:20:18.254Z,1.82
2023-05-18T04:21:18.224Z,2.30
2023-05-18T04:22:18.241Z,2.24
2023-05-18T04:23:18.254Z,2.28
2023-05-18T04:24:20.245Z,2.07
2023-05-18T04:25:18.360Z,2.15
2023-05-18T04:26:18.350Z,2.08
2023-05-18T04:27:18.376Z,2.35
2023-05-18T04:28:18.392Z,2.30
2023-05-18T04:29:18.483Z,2.24
2023-05-18T04:30:18.554Z,2.15
2023-05-18T04:31:18.594Z,2.22
2023-05-18T04:32:18.718Z,1.98
2023-05-18T04:33:18.600Z,2.12
2023-05-18T04:34:18.603Z,2.26
2023-05-18T04:35:18.716Z,2.45
2023-05-18T04:36:20.819Z,2.51
2023-05-18T04:37:18.735Z,2.40
2023-05-18T04:38:18.772Z,2.41
2023-05-18T04:39:18.837Z,2.56
2023-05-18T04:40:18.908Z,2.89
2023-05-18T04:41:18.908Z,2.80
2023-05-18T04:42:18.907Z,2.90
2023-05-18T04:43:18.929Z,3.26
2023-05-18T04:44:18.973Z,3.24
2023-05-18T04:45:19.027Z,3.14
2023-05-18T04:46:19.157Z,3.04
2023-05-18T04:47:19.093Z,3.05
2023-05-18T04:48:19.126Z,3.20
2023-05-18T04:49:19.161Z,3.39
2023-05-18T04:50:19.222Z,3.63
2023-05-18T04:51:19.223Z,3.47
2023-05-18T04:52:19.293Z,3.61
2023-05-18T04:53:19.293Z,3.66
2023-05-18T04:54:19.356Z,4.16
2023-05-18T04:55:19.357Z,3.91
2023-05-18T04:56:19.361Z,3.47
2023-05-18T04:57:19.455Z,3.33
2023-05-18T04:58:19.408Z,3.78
2023-05-18T04:59:19.501Z,3.46
2023-05-18T05:00:19.527Z,2.92
2023-05-18T05:01:19.532Z,3.49
2023-05-18T05:02:19.541Z,3.90
2023-05-18T05:03:19.587Z,3.81
2023-05-18T05:04:19.537Z,3.70
2023-05-18T05:05:19.560Z,2.76
2023-05-18T05:06:19.588Z,1.59
2023-05-18T05:07:19.601Z,1.54
2023-05-18T05:08:19.602Z,1.89
2023-05-18T05:09:19.652Z,1.86
2023-05-18T05:10:19.677Z,1.84
2023-05-18T05:11:19.712Z,1.62
2023-05-18T05:12:19.716Z,1.61
2023-05-18T05:13:19.739Z,1.51
2023-05-18T05:14:19.740Z,1.50
2023-05-18T05:15:19.762Z,1.55
2023-05-18T05:16:19.785Z,1.59
2023-05-18T05:17:19.776Z,1.52
2023-05-18T05:18:19.769Z,1.65
2023-05-18T05:19:19.818Z,1.23
2023-05-18T05:20:19.839Z,1.17
2023-05-18T05:21:19.828Z,1.02
2023-05-18T05:22:19.888Z,1.08
2023-05-18T05:23:19.982Z,1.14
2023-05-18T05:24:19.901Z,0.80
2023-05-18T05:25:20.207Z,0.98
2023-05-18T05:26:19.989Z,0.94
2023-05-18T05:27:19.982Z,1.03
2023-05-18T05:28:19.992Z,0.98
2023-05-18T05:29:20.032Z,0.80
2023-05-18T05:30:20.036Z,0.85
2023-05-18T05:31:20.076Z,1.00
2023-05-18T05:32:20.116Z,1.03
2023-05-18T05:33:20.114Z,1.04
2023-05-18T05:34:20.189Z,0.97
2023-05-18T05:35:20.233Z,0.65
2023-05-18T05:36:20.294Z,0.61
2023-05-18T05:37:20.319Z,0.63
2023-05-18T05:38:20.362Z,0.59
2023-05-18T05:39:20.438Z,0.59
2023-05-18T05:40:20.457Z,0.56
2023-05-18T05:41:20.493Z,0.60
2023-05-18T05:42:20.485Z,0.76
2023-05-18T05:43:20.502Z,0.76
2023-05-18T05:44:20.552Z,0.62
2023-05-18T05:45:20.573Z,0.58
2023-05-18T05:46:20.643Z,0.70
2023-05-18T05:47:20.628Z,0.66
2023-05-18T05:48:20.649Z,0.63
2023-05-18T05:49:20.629Z,0.59
2023-05-18T05:50:20.652Z,0.50
2023-05-18T05:51:20.678Z,0.55
2023-05-18T05:52:20.675Z,0.47
2023-05-18T05:53:20.661Z,0.50
2023-05-18T05:54:20.682Z,0.50
2023-05-18T05:55:20.729Z,0.51
2023-05-18T05:56:20.734Z,0.57
2023-05-18T05:57:20.759Z,0.49
2023-05-18T05:58:20.801Z,0.50
2023-05-18T05:59:20.859Z,0.49
2023-05-18T06:00:20.928Z,0.56
2023-05-18T06:01:20.935Z,0.58
2023-05-18T06:02:21.020Z,0.62
2023-05-18T06:03:21.116Z,0.55
2023-05-18T06:04:21.119Z,0.65
2023-05-18T06:05:21.055Z,0.54
2023-05-18T06:06:21.122Z,0.50
2023-05-18T06:07:21.153Z,0.54
2023-05-18T06:08:21.173Z,0.48
2023-05-18T06:09:21.241Z,0.50
2023-05-18T06:10:21.231Z,0.71
2023-05-18T06:11:21.314Z,0.69
2023-05-18T06:12:21.316Z,0.51
2023-05-18T06:13:21.337Z,0.55
2023-05-18T06:14:21.378Z,0.60
2023-05-18T06:16:22.457Z,0.50
2023-05-18T06:17:22.408Z,0.50
2023-05-18T06:18:22.427Z,0.50
2023-05-18T06:19:22.453Z,0.50
2023-05-18T06:20:22.389Z,0.50
2023-05-18T06:21:22.392Z,0.74
2023-05-18T06:22:22.340Z,0.41
2023-05-18T06:23:22.361Z,0.43
2023-05-18T06:24:22.365Z,0.54
2023-05-18T06:25:22.390Z,0.56
2023-05-18T06:26:22.324Z,0.55
2023-05-18T06:27:22.352Z,0.74
2023-05-18T06:28:22.314Z,0.83
2023-05-18T06:29:22.347Z,1.01
2023-05-18T06:30:22.311Z,0.98
2023-05-18T06:31:22.327Z,0.82
2023-05-18T06:32:22.410Z,0.55
2023-05-18T06:33:22.269Z,0.47
2023-05-18T06:34:22.308Z,0.49
2023-05-18T06:35:22.323Z,0.50
2023-05-18T06:36:22.252Z,0.43
2023-05-18T06:37:22.250Z,0.36
2023-05-18T06:38:22.256Z,0.50
2023-05-18T06:39:22.265Z,0.50
2023-05-18T06:40:22.226Z,0.46
2023-05-18T06:41:22.236Z,0.55
2023-05-18T06:42:22.222Z,0.56
2023-05-18T06:43:22.254Z,0.61
2023-05-18T06:44:22.256Z,0.32
2023-05-18T06:45:22.200Z,0.34
2023-05-18T06:46:22.232Z,0.45
2023-05-18T06:47:22.220Z,0.53
2023-05-18T06:48:22.220Z,0.75
2023-05-18T06:49:22.184Z,0.64
2023-05-18T06:50:22.196Z,0.63
2023-05-18T06:51:22.198Z,0.77
2023-05-18T06:52:22.151Z,0.92
2023-05-18T06:53:22.154Z,1.50
2023-05-18T06:54:22.157Z,1.10
2023-05-18T06:55:22.163Z,1.33
2023-05-18T06:56:22.126Z,0.96
2023-05-18T06:57:22.140Z,0.54
2023-05-18T06:58:22.136Z,0.46
2023-05-18T06:59:22.134Z,0.55
2023-05-18T07:00:22.113Z,0.36
2023-05-18T07:01:22.144Z,0.35
2023-05-18T07:02:22.107Z,0.36
2023-05-18T07:03:22.103Z,0.48
2023-05-18T07:04:22.095Z,0.58
2023-05-18T07:05:22.072Z,0.74
2023-05-18T07:06:22.059Z,0.97
2023-05-18T07:07:22.032Z,0.79
2023-05-18T07:08:22.055Z,0.72
2023-05-18T07:09:22.050Z,0.54
2023-05-18T07:10:22.072Z,0.45
2023-05-18T07:11:21.992Z,0.54
2023-05-18T07:12:22.021Z,0.60
2023-05-18T07:13:22.042Z,0.45
2023-05-18T07:14:22.085Z,0.51
2023-05-18T07:15:22.088Z,0.76
2023-05-18T07:16:22.169Z,0.89
2023-05-18T07:17:22.195Z,0.97
2023-05-18T07:18:22.182Z,0.64
2023-05-18T07:19:22.355Z,0.44
2023-05-18T07:20:23.129Z,0.26
2023-05-18T07:21:22.231Z,0.27
2023-05-18T07:22:22.244Z,0.72
2023-05-18T07:23:22.214Z,0.93
2023-05-18T07:24:22.218Z,0.65
2023-05-18T07:25:22.219Z,0.93
2023-05-18T07:26:22.170Z,0.77
2023-05-18T07:27:22.178Z,0.78
2023-05-18T07:28:22.186Z,0.95
2023-05-18T07:29:22.187Z,0.51
2023-05-18T07:30:22.194Z,0.65
2023-05-18T07:31:22.304Z,0.45
2023-05-18T07:32:22.179Z,0.25
2023-05-18T07:33:22.123Z,0.36
2023-05-18T07:34:22.128Z,0.38
2023-05-18T07:35:22.092Z,0.50
2023-05-18T07:36:22.142Z,1.04
2023-05-18T07:37:22.121Z,0.65
2023-05-18T07:38:22.104Z,0.83
2023-05-18T07:39:22.106Z,0.67
2023-05-18T07:40:22.089Z,0.64
2023-05-18T07:41:22.087Z,0.66
2023-05-18T07:42:22.077Z,0.84
2023-05-18T07:43:22.076Z,1.35
2023-05-18T07:44:22.076Z,1.22
2023-05-18T07:45:22.104Z,0.50
2023-05-18T07:46:22.092Z,0.52
2023-05-18T07:47:22.237Z,0.66
2023-05-18T07:48:22.035Z,0.76
2023-05-18T07:49:22.072Z,0.59
2023-05-18T07:50:22.072Z,0.37
2023-05-18T07:51:22.025Z,0.29
2023-05-18T07:52:22.003Z,0.35
2023-05-18T07:53:22.002Z,0.42
2023-05-18T07:54:22.019Z,0.50
2023-05-18T07:55:21.985Z,0.55
2023-05-18T07:56:21.962Z,0.59
2023-05-18T07:57:21.987Z,0.64
2023-05-18T07:58:21.992Z,0.71
2023-05-18T07:59:21.992Z,0.64
2023-05-18T08:00:21.959Z,0.57
2023-05-18T08:01:21.921Z,0.50
2023-05-18T08:02:21.989Z,0.28
2023-05-18T08:03:22.032Z,0.32
2023-05-18T08:04:21.968Z,0.49
2023-05-18T08:05:21.944Z,0.33
2023-05-18T08:06:21.931Z,0.74
2023-05-18T08:07:21.924Z,0.56
2023-05-18T08:08:21.923Z,0.53
2023-05-18T08:09:21.870Z,1.61
2023-05-18T08:10:21.942Z,0.49
2023-05-18T08:11:21.920Z,0.54
2023-05-18T08:12:21.876Z,0.48
2023-05-18T08:13:21.868Z,0.34
2023-05-18T08:14:21.867Z,0.49
2023-05-18T08:15:21.839Z,0.35
2023-05-18T08:16:21.907Z,0.40
2023-05-18T08:17:21.878Z,0.41
2023-05-18T08:18:21.843Z,0.70
2023-05-18T08:19:21.952Z,0.49
2023-05-18T08:20:21.860Z,0.69
2023-05-18T08:21:21.866Z,0.42
2023-05-18T08:22:21.896Z,0.27
2023-05-18T08:23:21.939Z,0.45
2023-05-18T08:24:22.020Z,0.61
2023-05-18T08:25:22.025Z,0.81
2023-05-18T08:26:22.045Z,1.31
2023-05-18T08:27:22.092Z,0.90
2023-05-18T08:28:22.105Z,0.77
2023-05-18T08:29:22.141Z,1.10
2023-05-18T08:30:22.174Z,1.19
2023-05-18T08:31:22.255Z,1.09
2023-05-18T08:32:22.314Z,1.67
2023-05-18T08:33:22.312Z,0.89
2023-05-18T08:34:22.398Z,0.89
2023-05-18T08:35:22.351Z,0.72
2023-05-18T08:36:22.370Z,1.24
2023-05-18T08:37:22.356Z,1.46
2023-05-18T08:38:22.424Z,1.07
2023-05-18T08:39:22.436Z,1.90
2023-05-18T08:40:22.504Z,2.47
2023-05-18T08:41:22.513Z,2.82
2023-05-18T08:42:23.413Z,3.59
2023-05-18T08:43:22.512Z,2.84
2023-05-18T08:44:22.582Z,2.24
2023-05-18T08:45:23.041Z,1.42
2023-05-18T08:46:22.684Z,1.28
2023-05-18T08:47:22.722Z,1.35
2023-05-18T08:48:23.468Z,1.27
2023-05-18T08:49:22.727Z,1.07
2023-05-18T08:50:24.522Z,1.23
2023-05-18T08:51:22.824Z,1.91
2023-05-18T08:52:22.809Z,2.11
2023-05-18T08:53:22.849Z,3.35
2023-05-18T08:54:22.899Z,3.14
2023-05-18T08:55:22.901Z,3.10
2023-05-18T08:56:22.962Z,3.10
2023-05-18T08:57:22.972Z,3.35
2023-05-18T08:58:22.970Z,3.03
2023-05-18T08:59:23.025Z,3.12
2023-05-18T09:00:24.358Z,5.59
2023-05-18T09:01:23.118Z,6.90
2023-05-18T09:02:23.091Z,6.26
2023-05-18T09:03:23.192Z,5.12
2023-05-18T09:04:23.170Z,4.82
2023-05-18T09:05:23.243Z,6.19
2023-05-18T09:06:24.170Z,1.91
2023-05-18T09:07:23.224Z,1.38
2023-05-18T09:08:23.299Z,0.84
2023-05-18T09:09:23.357Z,0.50
2023-05-18T09:10:23.506Z,0.56
2023-05-18T09:11:23.432Z,0.57
2023-05-18T09:12:24.558Z,0.68
2023-05-18T09:13:23.411Z,0.97
2023-05-18T09:14:23.412Z,0.85
2023-05-18T09:15:23.489Z,1.22
2023-05-18T09:16:23.515Z,0.89
2023-05-18T09:17:23.557Z,0.32
2023-05-18T09:18:25.553Z,0.40
2023-05-18T09:19:23.634Z,0.68
2023-05-18T09:20:23.601Z,0.56
2023-05-18T09:21:23.535Z,0.58
2023-05-18T09:22:23.480Z,0.57
2023-05-18T09:23:23.488Z,0.49
2023-05-18T09:24:24.860Z,0.46
2023-05-18T09:25:23.497Z,0.46
2023-05-18T09:26:23.474Z,0.48
2023-05-18T09:27:23.466Z,0.45
2023-05-18T09:28:23.478Z,0.47
2023-05-18T09:29:23.474Z,0.66
2023-05-18T09:30:23.485Z,0.74
2023-05-18T09:31:23.449Z,0.66
2023-05-18T09:32:23.457Z,0.63
2023-05-18T09:33:23.583Z,0.68
2023-05-18T09:34:23.474Z,0.76
2023-05-18T09:35:23.430Z,0.76
2023-05-18T09:36:23.422Z,0.76
2023-05-18T09:37:23.383Z,0.54
2023-05-18T09:38:23.407Z,0.58
2023-05-18T09:39:23.401Z,0.49
2023-05-18T09:40:23.393Z,0.57
2023-05-18T09:41:23.363Z,0.91
2023-05-18T09:42:24.284Z,0.97
2023-05-18T09:43:23.374Z,1.18
2023-05-18T09:44:23.421Z,0.96
2023-05-18T09:45:23.381Z,1.08
2023-05-18T09:46:23.398Z,0.98
2023-05-18T09:47:23.384Z,1.05
2023-05-18T09:48:25.299Z,1.07
2023-05-18T09:49:23.308Z,1.11
2023-05-18T09:50:23.401Z,0.97
2023-05-18T09:51:23.361Z,1.19
2023-05-18T09:52:23.378Z,0.85
2023-05-18T09:53:23.376Z,0.72
2023-05-18T09:54:24.410Z,0.93
2023-05-18T09:55:23.495Z,1.15
2023-05-18T09:56:23.513Z,1.16
2023-05-18T09:57:23.509Z,1.34
2023-05-18T09:58:23.526Z,1.56
2023-05-18T09:59:23.580Z,1.92
2023-05-18T10:00:25.545Z,2.45
2023-05-18T10:01:23.865Z,2.73
2023-05-18T10:02:23.710Z,2.67
2023-05-18T10:03:23.762Z,2.76
2023-05-18T10:04:23.806Z,3.05
2023-05-18T10:05:23.825Z,3.72
2023-05-18T10:06:23.832Z,2.53
2023-05-18T10:07:23.864Z,2.08
2023-05-18T10:08:23.941Z,2.35
2023-05-18T10:09:23.955Z,2.73
2023-05-18T10:10:23.955Z,2.83
2023-05-18T10:11:23.986Z,3.43
2023-05-18T10:12:24.051Z,3.25
2023-05-18T10:13:24.076Z,3.40
2023-05-18T10:14:24.090Z,3.06
2023-05-18T10:15:24.165Z,2.23
2023-05-18T10:16:24.224Z,1.76
2023-05-18T10:17:24.219Z,2.04
2023-05-18T10:18:24.310Z,1.95
2023-05-18T10:19:24.365Z,1.54
2023-05-18T10:20:24.331Z,1.31
2023-05-18T10:21:24.253Z,2.09
2023-05-18T10:22:24.308Z,2.74
2023-05-18T10:23:24.336Z,3.11
2023-05-18T10:24:24.378Z,2.68
2023-05-18T10:25:24.399Z,3.71
2023-05-18T10:26:24.422Z,1.63
2023-05-18T10:27:24.740Z,0.81
2023-05-18T10:28:24.499Z,0.56
2023-05-18T10:29:24.496Z,0.33
2023-05-18T10:30:24.496Z,0.50
2023-05-18T10:31:24.614Z,0.46
2023-05-18T10:32:24.558Z,0.50
2023-05-18T10:33:29.465Z,0.35
2023-05-18T10:34:25.592Z,0.22
2023-05-18T10:35:24.647Z,0.17
2023-05-18T10:36:24.635Z,0.16
2023-05-18T10:37:24.556Z,0.16
2023-05-18T10:38:24.564Z,0.16
2023-05-18T10:39:24.573Z,0.16
2023-05-18T10:40:24.559Z,0.16
2023-05-18T10:41:24.576Z,0.16
2023-05-18T10:42:24.533Z,0.16
2023-05-18T10:43:24.504Z,0.21
2023-05-18T10:44:24.553Z,0.40
2023-05-18T10:45:24.499Z,0.39
2023-05-18T10:46:24.577Z,0.47
2023-05-18T10:47:24.603Z,0.47
2023-05-18T10:48:24.567Z,0.50
2023-05-18T10:49:24.529Z,0.37
2023-05-18T10:50:24.607Z,0.34
2023-05-18T10:51:24.647Z,0.48
2023-05-18T10:52:24.653Z,0.50
2023-05-18T10:53:24.646Z,0.71
2023-05-18T10:54:24.665Z,0.61
2023-05-18T10:55:24.695Z,0.44
2023-05-18T10:56:24.798Z,0.70
2023-05-18T10:57:24.789Z,0.58
2023-05-18T10:58:24.804Z,1.04
2023-05-18T10:59:24.828Z,0.73
2023-05-18T11:00:24.876Z,0.78
2023-05-18T11:01:24.919Z,0.93
2023-05-18T11:02:24.939Z,0.84
2023-05-18T11:03:24.934Z,1.06
2023-05-18T11:04:25.054Z,1.74
2023-05-18T11:05:25.104Z,2.25
2023-05-18T11:06:25.089Z,2.57
2023-05-18T11:07:25.135Z,3.70
2023-05-18T11:08:25.128Z,2.03
2023-05-18T11:09:25.185Z,1.32
2023-05-18T11:10:25.191Z,1.12
2023-05-18T11:11:25.255Z,0.80
2023-05-18T11:12:25.278Z,0.92
2023-05-18T11:13:25.340Z,0.98
2023-05-18T11:14:25.341Z,0.77
2023-05-18T11:15:25.377Z,0.45
2023-05-18T11:16:25.526Z,0.34
2023-05-18T11:17:25.540Z,0.27
2023-05-18T11:18:25.450Z,0.44
2023-05-18T11:19:25.614Z,0.38
2023-05-18T11:20:25.515Z,0.21
2023-05-18T11:21:25.526Z,0.16
2023-05-18T11:22:25.519Z,0.19
2023-05-18T11:23:25.590Z,0.19
2023-05-18T11:24:25.587Z,0.18
2023-05-18T11:25:25.756Z,0.23
2023-05-18T11:26:25.675Z,0.35
2023-05-18T11:27:25.713Z,0.35
2023-05-18T11:28:25.795Z,0.37
2023-05-18T11:29:25.812Z,0.35
2023-05-18T11:30:25.816Z,0.28
2023-05-18T11:31:25.936Z,0.32
2023-05-18T11:32:29.843Z,0.47
2023-05-18T11:33:25.960Z,0.43
2023-05-18T11:34:25.851Z,0.49
2023-05-18T11:35:25.860Z,0.65
2023-05-18T11:36:26.492Z,0.71
2023-05-18T11:37:25.837Z,0.86
2023-05-18T11:38:25.872Z,0.72
2023-05-18T11:39:25.852Z,0.86
2023-05-18T11:40:25.881Z,0.83
2023-05-18T11:41:25.819Z,0.86
2023-05-18T11:42:33.504Z,1.08
2023-05-18T11:43:25.822Z,1.09
2023-05-18T11:44:25.821Z,1.14
2023-05-18T11:45:25.833Z,1.22
2023-05-18T11:46:25.788Z,1.55
2023-05-18T11:47:25.787Z,2.19
2023-05-18T11:48:25.903Z,1.79
2023-05-18T11:49:25.770Z,1.73
2023-05-18T11:50:25.767Z,1.95
2023-05-18T11:51:25.796Z,1.79
2023-05-18T11:52:25.738Z,2.91
2023-05-18T11:53:25.782Z,3.03
2023-05-18T11:54:25.756Z,1.74
2023-05-18T11:55:25.719Z,1.97
2023-05-18T11:56:25.709Z,2.79
2023-05-18T11:57:25.698Z,2.11
2023-05-18T11:58:25.714Z,1.89
2023-05-18T11:59:25.700Z,1.62
2023-05-18T12:00:25.695Z,1.34
2023-05-18T12:01:25.677Z,1.28
2023-05-18T12:02:25.928Z,1.49
2023-05-18T12:03:25.980Z,2.24
2023-05-18T12:04:25.785Z,1.52
2023-05-18T12:05:25.704Z,1.20
2023-05-18T12:06:25.720Z,1.49
2023-05-18T12:07:25.804Z,2.82
2023-05-18T12:08:25.796Z,4.85
2023-05-18T12:09:25.855Z,6.24
2023-05-18T12:10:25.891Z,10.66
2023-05-18T12:11:25.906Z,16.56
2023-05-18T12:12:25.939Z,15.41
2023-05-18T12:13:25.996Z,6.20
2023-05-18T12:14:26.037Z,4.11
2023-05-18T12:15:26.055Z,2.76
2023-05-18T12:16:26.080Z,2.33
2023-05-18T12:17:26.116Z,2.13
2023-05-18T12:18:26.145Z,3.48
2023-05-18T12:19:26.198Z,3.81
2023-05-18T12:20:26.205Z,3.47
2023-05-18T12:21:26.213Z,2.61
2023-05-18T12:22:26.196Z,2.88
2023-05-18T12:23:33.949Z,2.83
2023-05-18T12:24:26.244Z,1.62
2023-05-18T12:25:26.198Z,1.45
2023-05-18T12:26:26.201Z,1.21
2023-05-18T12:27:26.216Z,1.52
2023-05-18T12:28:26.224Z,1.68
2023-05-18T12:29:26.238Z,1.82
2023-05-18T12:30:26.210Z,1.96
2023-05-18T12:31:26.216Z,2.31
2023-05-18T12:32:26.224Z,2.03
2023-05-18T12:33:26.176Z,1.87
2023-05-18T12:34:26.225Z,2.03
2023-05-18T12:35:26.165Z,3.09
2023-05-18T12:36:26.146Z,3.44
2023-05-18T12:37:34.227Z,3.48
2023-05-18T12:38:27.110Z,2.24
2023-05-18T12:39:28.443Z,2.37
2023-05-18T12:40:26.108Z,3.24
2023-05-18T12:41:26.129Z,3.52
2023-05-18T12:42:26.121Z,3.76
2023-05-18T12:43:26.090Z,3.59
2023-05-18T12:44:26.081Z,4.36
2023-05-18T12:45:26.234Z,4.09
2023-05-18T12:46:26.229Z,5.06
2023-05-18T12:47:26.093Z,3.62
2023-05-18T12:48:26.055Z,2.88
2023-05-18T12:49:26.033Z,2.94
2023-05-18T12:50:26.087Z,2.30
2023-05-18T12:51:26.037Z,2.59
2023-05-18T12:52:26.031Z,1.76
2023-05-18T12:53:25.998Z,1.52
2023-05-18T12:54:25.996Z,2.25
2023-05-18T12:55:26.028Z,2.43
2023-05-18T12:56:26.005Z,3.89
2023-05-18T12:57:25.986Z,4.40
2023-05-18T12:58:25.981Z,5.58
2023-05-18T12:59:25.974Z,5.62
2023-05-18T13:00:25.998Z,3.66
2023-05-18T13:01:26.034Z,2.03
2023-05-18T13:02:26.090Z,2.08
2023-05-18T13:03:26.012Z,2.65
2023-05-18T13:04:25.950Z,2.94
2023-05-18T13:05:25.964Z,4.66
2023-05-18T13:06:25.903Z,6.59
2023-05-18T13:07:25.945Z,9.73
2023-05-18T13:08:25.941Z,12.41
2023-05-18T13:09:25.981Z,17.11
2023-05-18T13:10:25.945Z,13.27
2023-05-18T13:11:25.915Z,9.92
2023-05-18T13:12:25.898Z,7.74
2023-05-18T13:13:25.888Z,6.02
2023-05-18T13:14:25.871Z,5.77
2023-05-18T13:15:25.884Z,4.69
2023-05-18T13:16:25.940Z,3.12
2023-05-18T13:17:25.895Z,3.40